createdAt,value
2022-10-01T00:01:19.367Z,100.00
2022-10-01T00:03:48.047Z,100.00
2022-10-01T00:06:19.462Z,100.00
2022-10-01T00:08:49.144Z,100.00
2022-10-01T00:11:22.826Z,100.00
2022-10-01T00:13:51.160Z,100.00
2022-10-01T00:16:22.361Z,100.00
2022-10-01T00:18:51.013Z,100.00
2022-10-01T00:21:24.602Z,100.00
2022-10-01T00:24:01.838Z,100.00
2022-10-01T00:26:32.055Z,100.00
2022-10-01T00:29:03.537Z,100.00
2022-10-01T00:31:30.967Z,100.00
2022-10-01T00:34:00.190Z,100.00
2022-10-01T00:36:27.779Z,100.00
2022-10-01T00:39:00.697Z,100.00
2022-10-01T00:41:30.658Z,100.00
2022-10-01T00:44:01.508Z,100.00
2022-10-01T00:46:40.516Z,100.00
2022-10-01T00:49:11.025Z,100.00
2022-10-01T00:51:42.517Z,100.00
2022-10-01T00:54:17.367Z,100.00
2022-10-01T00:56:46.440Z,100.00
2022-10-01T00:59:16.608Z,100.00
2022-10-01T01:01:44.576Z,100.00
2022-10-01T01:04:17.793Z,100.00
2022-10-01T01:06:53.953Z,100.00
2022-10-01T01:09:23.029Z,100.00
2022-10-01T01:12:01.575Z,100.00
2022-10-01T01:14:49.825Z,100.00
2022-10-01T01:17:26.055Z,100.00
2022-10-01T01:19:59.369Z,100.00
2022-10-01T01:22:32.387Z,100.00
2022-10-01T01:25:18.687Z,100.00
2022-10-01T01:27:57.784Z,100.00
2022-10-01T01:30:25.127Z,100.00
2022-10-01T01:33:12.147Z,100.00
2022-10-01T01:35:48.149Z,100.00
2022-10-01T01:38:21.004Z,100.00
2022-10-01T01:40:51.780Z,100.00
2022-10-01T01:43:24.434Z,100.00
2022-10-01T01:45:56.414Z,100.00
2022-10-01T01:48:24.884Z,100.00
2022-10-01T01:50:57.105Z,100.00
2022-10-01T01:53:26.132Z,100.00
2022-10-01T01:55:54.148Z,100.00
2022-10-01T01:58:21.585Z,100.00
2022-10-01T02:00:54.688Z,100.00
2022-10-01T02:03:25.766Z,100.00
2022-10-01T02:06:19.012Z,100.00
2022-10-01T02:08:58.512Z,99.23
2022-10-01T02:11:33.424Z,99.14
2022-10-01T02:14:48.829Z,99.72
2022-10-01T02:17:22.114Z,99.92
2022-10-01T02:20:04.980Z,100.00
2022-10-01T02:22:58.488Z,100.00
2022-10-01T02:25:27.304Z,100.00
2022-10-01T02:28:08.035Z,100.00
2022-10-01T02:30:38.237Z,100.00
2022-10-01T02:33:08.308Z,100.00
2022-10-01T02:35:38.010Z,100.00
2022-10-01T02:38:09.869Z,100.00
2022-10-01T02:40:42.542Z,100.00
2022-10-01T02:43:16.641Z,100.00
2022-10-01T02:45:51.693Z,99.73
2022-10-01T02:48:19.301Z,99.64
2022-10-01T02:50:57.451Z,99.64
2022-10-01T02:53:37.793Z,100.00
2022-10-01T02:56:06.808Z,100.00
2022-10-01T02:58:34.222Z,100.00
2022-10-01T03:01:01.313Z,100.00
2022-10-01T03:03:28.574Z,100.00
2022-10-01T03:05:55.613Z,100.00
2022-10-01T03:08:23.560Z,100.00
2022-10-01T03:10:50.847Z,100.00
2022-10-01T03:13:19.933Z,100.00
2022-10-01T03:15:47.412Z,99.81
2022-10-01T03:18:14.660Z,100.00
2022-10-01T03:20:41.692Z,99.97
2022-10-01T03:23:08.880Z,100.00
2022-10-01T03:25:36.549Z,100.00
2022-10-01T03:28:03.801Z,100.00
2022-10-01T03:30:30.940Z,99.93
2022-10-01T03:32:58.152Z,100.00
2022-10-01T03:35:25.421Z,100.00
2022-10-01T03:37:53.232Z,100.00
2022-10-01T03:40:20.360Z,100.00
2022-10-01T03:42:47.520Z,100.00
2022-10-01T03:45:14.553Z,100.00
2022-10-01T03:47:41.747Z,100.00
2022-10-01T03:50:08.965Z,100.00
2022-10-01T03:52:36.169Z,100.00
2022-10-01T03:55:03.363Z,100.00
2022-10-01T03:57:32.813Z,99.35
2022-10-01T03:59:59.863Z,99.17
2022-10-01T04:02:27.956Z,98.24
2022-10-01T04:04:55.085Z,98.01
2022-10-01T04:07:22.455Z,98.06
2022-10-01T04:09:51.239Z,97.93
2022-10-01T04:12:19.104Z,97.97
2022-10-01T04:14:46.138Z,97.83
2022-10-01T04:17:13.248Z,98.23
2022-10-01T04:19:40.359Z,97.96
2022-10-01T04:22:07.711Z,98.17
2022-10-01T04:24:34.833Z,98.22
2022-10-01T04:27:01.992Z,98.19
2022-10-01T04:29:29.036Z,97.86
2022-10-01T04:31:58.401Z,97.86
2022-10-01T04:34:45.528Z,97.64
2022-10-01T04:37:13.331Z,97.93
2022-10-01T04:39:40.657Z,97.86
2022-10-01T04:42:07.711Z,97.67
2022-10-01T04:44:35.676Z,97.73
2022-10-01T04:47:02.920Z,97.72
2022-10-01T04:49:31.153Z,97.69
2022-10-01T04:51:58.525Z,97.00
2022-10-01T04:54:25.603Z,97.48
2022-10-01T04:56:53.128Z,97.49
2022-10-01T04:59:20.198Z,96.82
2022-10-01T05:01:47.501Z,96.92
2022-10-01T05:04:14.642Z,96.81
2022-10-01T05:06:41.953Z,96.30
2022-10-01T05:09:09.126Z,95.86
2022-10-01T05:11:36.498Z,95.00
2022-10-01T05:14:04.054Z,95.13
2022-10-01T05:16:31.188Z,94.71
2022-10-01T05:18:59.148Z,94.25
2022-10-01T05:21:26.451Z,94.32
2022-10-01T05:23:53.513Z,94.07
2022-10-01T05:26:20.757Z,93.96
2022-10-01T05:28:47.805Z,93.17
2022-10-01T05:31:16.243Z,93.15
2022-10-01T05:33:43.314Z,93.05
2022-10-01T05:36:10.614Z,91.70
2022-10-01T05:38:37.674Z,90.43
2022-10-01T05:41:05.499Z,88.82
2022-10-01T05:43:32.918Z,87.75
2022-10-01T05:46:05.570Z,87.36
2022-10-01T05:48:34.834Z,86.09
2022-10-01T05:51:03.312Z,84.55
2022-10-01T05:53:30.470Z,83.46
2022-10-01T05:56:00.405Z,82.51
2022-10-01T05:58:27.585Z,81.55
2022-10-01T06:00:55.764Z,78.32
2022-10-01T06:03:23.935Z,77.57
2022-10-01T06:05:52.080Z,75.04
2022-10-01T06:08:19.675Z,74.39
2022-10-01T06:10:47.345Z,73.60
2022-10-01T06:13:17.995Z,73.58
2022-10-01T06:15:47.900Z,72.67
2022-10-01T06:18:15.126Z,71.78
2022-10-01T06:20:42.434Z,69.41
2022-10-01T06:23:12.355Z,69.19
2022-10-01T06:25:41.167Z,68.29
2022-10-01T06:28:11.450Z,67.75
2022-10-01T06:30:40.342Z,66.53
2022-10-01T06:33:14.436Z,64.59
2022-10-01T06:35:50.245Z,63.82
2022-10-01T06:38:22.627Z,62.36
2022-10-01T06:40:53.768Z,61.15
2022-10-01T06:43:21.917Z,58.83
2022-10-01T06:45:49.182Z,57.39
2022-10-01T06:48:19.816Z,56.44
2022-10-01T06:50:48.569Z,55.92
2022-10-01T06:53:17.558Z,55.12
2022-10-01T06:55:45.661Z,58.37
2022-10-01T06:58:21.194Z,57.96
2022-10-01T07:00:49.495Z,60.70
2022-10-01T07:03:19.203Z,61.17
2022-10-01T07:05:47.193Z,62.51
2022-10-01T07:08:14.496Z,62.21
2022-10-01T07:10:42.294Z,64.12
2022-10-01T07:13:11.834Z,65.16
2022-10-01T07:15:39.895Z,65.85
2022-10-01T07:18:09.707Z,66.33
2022-10-01T07:20:40.146Z,66.44
2022-10-01T07:23:11.241Z,66.56
2022-10-01T07:25:40.345Z,66.29
2022-10-01T07:28:16.417Z,66.62
2022-10-01T07:30:57.297Z,67.08
2022-10-01T07:33:24.480Z,66.01
2022-10-01T07:35:51.727Z,64.88
2022-10-01T07:38:19.329Z,65.95
2022-10-01T07:40:54.961Z,65.28
2022-10-01T07:43:23.032Z,66.10
2022-10-01T07:45:52.603Z,65.72
2022-10-01T07:48:19.766Z,65.63
2022-10-01T07:50:47.477Z,66.60
2022-10-01T07:53:14.583Z,67.18
2022-10-01T07:55:42.055Z,69.19
2022-10-01T07:58:10.162Z,71.95
2022-10-01T08:00:37.318Z,73.40
2022-10-01T08:03:07.972Z,73.06
2022-10-01T08:05:36.470Z,72.03
2022-10-01T08:08:06.175Z,72.13
2022-10-01T08:10:36.798Z,70.46
2022-10-01T08:13:16.587Z,70.34
2022-10-01T08:15:46.010Z,69.94
2022-10-01T08:18:13.674Z,71.03
2022-10-01T08:20:41.075Z,69.00
2022-10-01T08:23:13.303Z,70.22
2022-10-01T08:25:41.982Z,70.81
2022-10-01T08:28:11.420Z,72.29
2022-10-01T08:30:40.370Z,72.69
2022-10-01T08:33:09.899Z,71.25
2022-10-01T08:35:40.547Z,69.65
2022-10-01T08:38:08.119Z,67.28
2022-10-01T08:40:41.049Z,68.49
2022-10-01T08:43:18.573Z,71.89
2022-10-01T08:45:53.801Z,72.40
2022-10-01T08:48:37.810Z,73.07
2022-10-01T08:51:16.268Z,73.53
2022-10-01T08:53:51.173Z,75.81
2022-10-01T08:56:24.376Z,77.60
2022-10-01T08:58:58.898Z,77.39
2022-10-01T09:01:27.595Z,78.52
2022-10-01T09:03:55.058Z,77.13
2022-10-01T09:06:25.666Z,78.57
2022-10-01T09:09:07.931Z,77.64
2022-10-01T09:12:00.069Z,78.70
2022-10-01T09:14:47.095Z,77.91
2022-10-01T09:17:30.914Z,76.97
2022-10-01T09:20:05.952Z,75.52
2022-10-01T09:22:38.883Z,74.27
2022-10-01T09:25:12.644Z,73.66
2022-10-01T09:27:40.618Z,70.34
2022-10-01T09:30:21.693Z,71.13
2022-10-01T09:33:14.636Z,71.95
2022-10-01T09:35:44.714Z,73.29
2022-10-01T09:38:42.496Z,73.87
2022-10-01T09:41:11.906Z,73.71
2022-10-01T09:43:41.754Z,71.71
2022-10-01T09:46:13.789Z,66.91
2022-10-01T09:48:58.912Z,68.22
2022-10-01T09:51:36.882Z,67.79
2022-10-01T09:54:15.475Z,65.93
2022-10-01T09:56:54.242Z,68.12
2022-10-01T09:59:28.674Z,69.75
2022-10-01T10:02:02.356Z,69.65
2022-10-01T10:04:30.299Z,70.58
2022-10-01T10:07:03.316Z,71.55
2022-10-01T10:09:33.193Z,72.74
2022-10-01T10:12:01.465Z,74.07
2022-10-01T10:14:30.957Z,73.53
2022-10-01T10:16:59.334Z,75.02
2022-10-01T10:19:31.226Z,74.74
2022-10-01T10:22:14.013Z,74.80
2022-10-01T10:24:41.490Z,72.95
2022-10-01T10:27:29.445Z,72.72
2022-10-01T10:30:15.227Z,75.60
2022-10-01T10:32:44.430Z,76.14
2022-10-01T10:35:19.436Z,75.97
2022-10-01T10:37:50.177Z,75.01
2022-10-01T10:40:28.421Z,75.58
2022-10-01T10:42:58.978Z,75.93
2022-10-01T10:45:36.820Z,76.75
2022-10-01T10:48:07.763Z,78.67
2022-10-01T10:50:40.483Z,78.98
2022-10-01T10:53:22.554Z,78.00
2022-10-01T10:56:02.785Z,79.12
2022-10-01T10:58:33.483Z,77.42
2022-10-01T11:01:10.327Z,76.33
2022-10-01T11:03:42.693Z,77.40
2022-10-01T11:06:12.583Z,77.20
2022-10-01T11:08:40.116Z,76.50
2022-10-01T11:11:10.203Z,75.56
2022-10-01T11:13:51.222Z,75.73
2022-10-01T11:16:24.721Z,76.43
2022-10-01T11:19:07.906Z,76.71
2022-10-01T11:21:37.943Z,76.41
2022-10-01T11:24:10.774Z,76.65
2022-10-01T11:26:43.211Z,75.70
2022-10-01T11:29:55.025Z,76.69
2022-10-01T11:32:45.654Z,76.80
2022-10-01T11:35:51.232Z,77.96
2022-10-01T11:38:36.491Z,77.82
2022-10-01T11:41:22.353Z,78.27
2022-10-01T11:43:56.559Z,76.32
2022-10-01T11:46:55.891Z,75.42
2022-10-01T11:50:03.353Z,74.31
2022-10-01T11:52:34.045Z,75.30
2022-10-01T11:55:24.806Z,76.98
2022-10-01T11:58:17.274Z,77.20
2022-10-01T12:00:56.215Z,75.73
2022-10-01T12:03:29.045Z,75.99
2022-10-01T12:05:57.060Z,75.78
2022-10-01T12:08:29.802Z,72.90
2022-10-01T12:11:11.968Z,75.97
2022-10-01T12:13:45.994Z,75.41
2022-10-01T12:16:37.212Z,75.57
2022-10-01T12:19:06.743Z,72.48
2022-10-01T12:22:05.723Z,68.99
2022-10-01T12:24:51.820Z,70.38
2022-10-01T12:27:37.550Z,71.38
2022-10-01T12:30:21.213Z,71.05
2022-10-01T12:33:09.556Z,72.35
2022-10-01T12:36:03.579Z,70.24
2022-10-01T12:38:30.638Z,71.94
2022-10-01T12:41:24.202Z,73.64
2022-10-01T12:44:09.924Z,73.34
2022-10-01T12:46:47.911Z,72.19
2022-10-01T12:49:22.666Z,72.96
2022-10-01T12:52:53.632Z,71.64
2022-10-01T12:55:35.590Z,71.10
2022-10-01T12:58:37.802Z,69.13
2022-10-01T13:01:29.310Z,69.41
2022-10-01T13:03:58.823Z,68.89
2022-10-01T13:06:41.134Z,67.84
2022-10-01T13:09:23.370Z,65.24
2022-10-01T13:12:29.144Z,66.45
2022-10-01T13:14:56.927Z,66.18
2022-10-01T13:17:53.536Z,68.16
2022-10-01T13:20:41.335Z,67.35
2022-10-01T13:23:27.259Z,66.45
2022-10-01T13:26:26.126Z,65.84
2022-10-01T13:29:18.123Z,65.96
2022-10-01T13:32:04.124Z,67.92
2022-10-01T13:34:51.838Z,67.00
2022-10-01T13:37:38.619Z,67.42
2022-10-01T13:40:32.134Z,66.21
2022-10-01T13:43:18.461Z,65.31
2022-10-01T13:45:47.572Z,65.96
2022-10-01T13:48:21.197Z,67.09
2022-10-01T13:51:04.479Z,67.72
2022-10-01T13:53:39.108Z,68.07
2022-10-01T13:56:07.047Z,68.69
2022-10-01T13:58:37.190Z,68.84
2022-10-01T14:01:26.257Z,69.96
2022-10-01T14:04:25.565Z,70.09
2022-10-01T14:06:57.594Z,73.98
2022-10-01T14:09:29.151Z,74.01
2022-10-01T14:12:20.138Z,70.58
2022-10-01T14:15:13.586Z,69.99
2022-10-01T14:17:43.371Z,70.16
2022-10-01T14:20:22.314Z,69.84
2022-10-01T14:23:16.149Z,70.75
2022-10-01T14:26:01.802Z,70.59
2022-10-01T14:28:50.496Z,70.89
2022-10-01T14:31:54.537Z,71.91
2022-10-01T14:34:45.835Z,72.53
2022-10-01T14:37:17.424Z,73.74
2022-10-01T14:39:45.311Z,72.49
2022-10-01T14:42:18.705Z,72.74
2022-10-01T14:44:47.429Z,73.19
2022-10-01T14:47:23.161Z,74.17
2022-10-01T14:49:51.291Z,74.56
2022-10-01T14:52:30.113Z,75.27
2022-10-01T14:54:57.260Z,75.75
2022-10-01T14:57:34.379Z,76.33
2022-10-01T15:00:08.287Z,75.38
2022-10-01T15:02:43.585Z,75.19
2022-10-01T15:05:33.097Z,74.73
2022-10-01T15:08:22.495Z,73.93
2022-10-01T15:10:56.680Z,74.43
2022-10-01T15:13:38.859Z,74.23
2022-10-01T15:16:15.344Z,75.64
2022-10-01T15:18:47.257Z,76.12
2022-10-01T15:21:26.439Z,76.55
2022-10-01T15:23:54.141Z,78.38
2022-10-01T15:26:30.003Z,77.90
2022-10-01T15:29:13.927Z,79.10
2022-10-01T15:31:41.885Z,79.10
2022-10-01T15:34:14.159Z,78.55
2022-10-01T15:36:42.472Z,79.12
2022-10-01T15:39:34.363Z,79.13
2022-10-01T15:42:08.933Z,77.36
2022-10-01T15:44:46.643Z,77.10
2022-10-01T15:47:19.715Z,76.56
2022-10-01T15:50:10.189Z,75.68
2022-10-01T15:52:54.387Z,74.90
2022-10-01T15:55:27.789Z,74.79
2022-10-01T15:58:15.305Z,58.86
2022-10-01T16:00:51.260Z,48.84
2022-10-01T16:03:27.544Z,46.25
2022-10-01T16:05:56.474Z,45.38
2022-10-01T16:08:33.076Z,44.54
2022-10-01T16:11:24.272Z,44.20
2022-10-01T16:13:52.967Z,44.31
2022-10-01T16:16:21.777Z,43.97
2022-10-01T16:19:23.114Z,43.85
2022-10-01T16:22:21.233Z,44.29
2022-10-01T16:24:51.074Z,44.42
2022-10-01T16:27:19.754Z,44.89
2022-10-01T16:29:54.365Z,44.90
2022-10-01T16:32:21.561Z,45.27
2022-10-01T16:34:48.640Z,45.48
2022-10-01T16:37:17.684Z,45.94
2022-10-01T16:39:45.408Z,46.26
2022-10-01T16:42:25.139Z,46.68
2022-10-01T16:44:52.667Z,46.87
2022-10-01T16:47:19.702Z,47.21
2022-10-01T16:49:48.317Z,47.47
2022-10-01T16:52:16.706Z,47.51
2022-10-01T16:54:45.266Z,47.59
2022-10-01T16:57:12.295Z,47.66
2022-10-01T16:59:39.463Z,47.80
2022-10-01T17:02:12.294Z,47.84
2022-10-01T17:04:39.697Z,48.15
2022-10-01T17:07:07.068Z,48.50
2022-10-01T17:09:34.294Z,48.51
2022-10-01T17:12:02.070Z,48.44
2022-10-01T17:14:29.252Z,48.59
2022-10-01T17:16:56.365Z,48.84
2022-10-01T17:19:24.715Z,48.59
2022-10-01T17:21:51.939Z,48.89
2022-10-01T17:24:19.081Z,49.04
2022-10-01T17:26:46.227Z,48.64
2022-10-01T17:29:13.557Z,48.88
2022-10-01T17:31:41.524Z,48.71
2022-10-01T17:34:08.767Z,48.48
2022-10-01T17:36:35.999Z,47.92
2022-10-01T17:39:04.087Z,47.07
2022-10-01T17:41:31.325Z,46.43
2022-10-01T17:43:58.817Z,46.40
2022-10-01T17:46:26.117Z,46.47
2022-10-01T17:48:53.285Z,47.05
2022-10-01T17:51:21.220Z,46.63
2022-10-01T17:53:48.508Z,46.52
2022-10-01T17:56:19.308Z,46.90
2022-10-01T17:58:47.235Z,47.08
2022-10-01T18:01:20.458Z,47.12
2022-10-01T18:03:48.252Z,47.05
2022-10-01T18:06:16.397Z,47.16
2022-10-01T18:08:58.912Z,47.22
2022-10-01T18:11:29.095Z,47.51
2022-10-01T18:13:56.797Z,48.02
2022-10-01T18:16:24.866Z,48.42
2022-10-01T18:21:47.658Z,48.58
2022-10-01T18:24:15.666Z,49.42
2022-10-01T18:26:43.201Z,49.52
2022-10-01T18:29:17.496Z,49.59
2022-10-01T18:31:47.585Z,49.86
2022-10-01T18:34:31.584Z,50.15
2022-10-01T18:37:07.157Z,49.83
2022-10-01T18:39:41.360Z,50.11
2022-10-01T18:42:17.568Z,49.65
2022-10-01T18:44:45.186Z,49.17
2022-10-01T18:47:23.138Z,48.68
2022-10-01T18:50:02.150Z,48.17
2022-10-01T18:52:46.978Z,47.97
2022-10-01T18:55:30.384Z,47.43
2022-10-01T18:58:13.837Z,47.62
2022-10-01T19:00:49.436Z,47.63
2022-10-01T19:03:41.014Z,46.95
2022-10-01T19:06:33.082Z,46.84
2022-10-01T19:09:12.661Z,46.59
2022-10-01T19:11:43.320Z,46.30
2022-10-01T19:14:34.690Z,46.57
2022-10-01T19:17:35.830Z,47.01
2022-10-01T19:20:17.344Z,48.41
2022-10-01T19:23:26.165Z,49.98
2022-10-01T19:26:12.594Z,51.22
2022-10-01T19:28:51.852Z,52.27
2022-10-01T19:31:49.575Z,52.44
2022-10-01T19:34:33.318Z,52.01
2022-10-01T19:37:05.785Z,51.80
2022-10-01T19:39:39.337Z,50.40
2022-10-01T19:42:14.407Z,48.79
2022-10-01T19:45:03.720Z,47.99
2022-10-01T19:47:48.468Z,47.75
2022-10-01T19:50:22.338Z,46.67
2022-10-01T19:52:51.881Z,46.55
2022-10-01T19:55:21.136Z,46.23
2022-10-01T19:57:48.790Z,45.81
2022-10-01T20:00:19.801Z,45.69
2022-10-01T20:02:51.866Z,45.69
2022-10-01T20:05:32.510Z,46.19
2022-10-01T20:08:16.483Z,45.72
2022-10-01T20:10:49.619Z,45.87
2022-10-01T20:13:29.642Z,45.59
2022-10-01T20:15:59.689Z,45.72
2022-10-01T20:18:39.193Z,45.54
2022-10-01T20:21:42.075Z,47.04
2022-10-01T20:24:18.615Z,46.51
2022-10-01T20:26:51.667Z,47.37
2022-10-01T20:29:43.579Z,45.99
2022-10-01T20:32:30.068Z,45.95
2022-10-01T20:35:34.363Z,44.91
2022-10-01T20:38:07.615Z,44.53
2022-10-01T20:40:40.228Z,44.71
2022-10-01T20:43:18.143Z,44.96
2022-10-01T20:45:50.082Z,45.16
2022-10-01T20:48:25.851Z,45.61
2022-10-01T20:50:59.989Z,45.99
2022-10-01T20:53:55.262Z,46.41
2022-10-01T20:56:33.684Z,47.25
2022-10-01T20:59:23.794Z,49.39
2022-10-01T21:02:02.578Z,50.94
2022-10-01T21:04:38.439Z,52.87
2022-10-01T21:07:37.809Z,53.60
2022-10-01T21:10:17.464Z,54.68
2022-10-01T21:12:54.753Z,55.31
2022-10-01T21:15:29.164Z,55.62
2022-10-01T21:18:04.739Z,55.59
2022-10-01T21:20:31.830Z,55.79
2022-10-01T21:23:21.649Z,55.68
2022-10-01T21:25:54.656Z,55.92
2022-10-01T21:28:42.838Z,55.55
2022-10-01T21:31:31.196Z,55.46
2022-10-01T21:33:58.291Z,55.65
2022-10-01T21:36:37.650Z,55.62
2022-10-01T21:39:18.018Z,55.82
2022-10-01T21:42:20.088Z,55.24
2022-10-01T21:44:55.909Z,55.45
2022-10-01T21:47:25.849Z,55.16
2022-10-01T21:50:18.558Z,55.41
2022-10-01T21:53:07.167Z,55.15
2022-10-01T21:56:03.760Z,55.49
2022-10-01T21:58:54.921Z,55.35
2022-10-01T22:01:22.296Z,56.01
2022-10-01T22:03:57.664Z,55.96
2022-10-01T22:06:46.455Z,56.74
2022-10-01T22:09:17.086Z,57.26
2022-10-01T22:11:54.653Z,57.80
2022-10-01T22:14:22.995Z,58.17
2022-10-01T22:16:57.564Z,58.36
2022-10-01T22:19:37.485Z,58.99
2022-10-01T22:22:30.325Z,59.17
2022-10-01T22:25:00.174Z,59.87
2022-10-01T22:27:56.058Z,60.63
2022-10-01T22:30:28.998Z,60.86
2022-10-01T22:33:08.098Z,63.53
2022-10-01T22:36:17.290Z,64.10
2022-10-01T22:38:56.992Z,64.75
2022-10-01T22:41:41.609Z,65.40
2022-10-01T22:44:35.139Z,65.01
2022-10-01T22:47:12.349Z,64.58
2022-10-01T22:49:57.045Z,63.79
2022-10-01T22:52:35.413Z,62.89
2022-10-01T22:55:11.372Z,62.91
2022-10-01T22:57:56.408Z,62.82
2022-10-01T23:00:23.800Z,61.21
2022-10-01T23:03:15.354Z,60.58
2022-10-01T23:05:57.778Z,60.91
2022-10-01T23:08:27.554Z,61.14
2022-10-01T23:10:54.672Z,61.62
2022-10-01T23:13:53.246Z,60.73
2022-10-01T23:16:23.113Z,58.36
2022-10-01T23:19:07.127Z,57.70
2022-10-01T23:22:01.995Z,59.15
2022-10-01T23:24:50.381Z,59.25
2022-10-01T23:27:59.466Z,58.86
2022-10-01T23:30:37.695Z,59.16
2022-10-01T23:33:28.292Z,59.42
2022-10-01T23:36:18.406Z,59.37
2022-10-01T23:38:56.412Z,59.09
2022-10-01T23:41:37.834Z,59.55
2022-10-01T23:44:18.216Z,59.29
2022-10-01T23:46:51.090Z,59.14
2022-10-01T23:49:22.373Z,58.65
2022-10-01T23:51:59.160Z,58.52
2022-10-01T23:54:47.674Z,58.33
2022-10-01T23:57:14.649Z,58.16
